x

Shp - Shell Point, Fl (shpf1) Weather Station

9:54pm - Fri 29th Jul 2016 All times are CDT. -5 hours from GMT.

  • Wind
    11mph, 15mph gusts
  • Air Temp 85°f
  • Sea Pressure 1015.8mb
  • Shp - Shell Point, Fl
  • Shp - Shell Point, Fl

More Historic Weather Station data

Upgrade to MSW Pro to gain access to the past 30 days of data for over 8000 Wavebouys and Weather Stations around the globe.

Join Pro

Comparision Forecast

View Surf forecast
   
Fri 07/29 9:54pm 11 15 mph 1015.8mb 85f
9:48pm 10 14 mph 1015.8mb 85f
8:54pm 10 13 mph 1015.5mb 86f
8:48pm 8 13 mph 1015.5mb 86f
7:54pm 5 6 mph 1014.9mb 86f
7:48pm 6 8 mph 1014.9mb 86f
6:54pm 8 10 mph 1014.6mb 86f
6:48pm 7 9 mph 1014.6mb 86f
5:54pm 10 15 mph 1014.7mb 87f
5:48pm 13 16 mph 1014.6mb 87f
4:54pm 9 13 mph 1014.5mb 87f
4:48pm 11 16 mph 1014.4mb 87f
3:54pm 14 17 mph 1014.6mb 89f
3:48pm 14 17 mph 1014.5mb 89f
2:54pm 14 16 mph 1015.3mb 89f
2:48pm 15 21 mph 1015.3mb 89f
12:54pm 13 16 mph 1016.1mb 89f
12:48pm 13 17 mph 1016.2mb 89f
11:54am 9 11 mph 1016.4mb 89f
11:48am 7 10 mph 1016.5mb 89f
10:54am 3 6 mph 1016.7mb 87f
10:48am 3 6 mph 1016.8mb 87f
9:54am 3 5 mph 1016.9mb 86f
9:48am 3 5 mph 1016.8mb 86f
8:54am 3 5 mph 1016.9mb 84f
8:48am 3 5 mph 1016.9mb 84f
7:54am 5 6 mph 1016.8mb 82f
7:48am 3 5 mph 1016.7mb 82f
6:54am 5 6 mph 1016.5mb 79f
6:48am 3 5 mph 1016.5mb 79f
5:54am 2 5 mph 1015.8mb 78f
5:48am 3 6 mph 1015.8mb 78f
4:54am 5 6 mph 1015.6mb 79f
4:48am 6 8 mph 1015.6mb 79f
3:54am 5 7 mph 1015.6mb 80f
3:48am 5 7 mph 1015.6mb 80f
2:54am 6 7 mph 1015.5mb 81f
2:48am 5 8 mph 1015.6mb 81f
1:54am 6 8 mph 1015.6mb 82f
1:48am 6 8 mph 1015.6mb 82f
12:54am 7 11 mph 1016mb 83f
12:48am 7 9 mph 1016mb 83f
Thu 07/28 11:54pm 7 9 mph 1016.2mb 84f
11:48pm 8 11 mph 1016.3mb 83f
10:54pm 10 15 mph 1016.2mb 85f
10:48pm 10 14 mph 1016.1mb 85f
8:54pm 13 15 mph 1015.5mb 87f
8:48pm 11 15 mph 1015.5mb 87f
7:54pm 14 17 mph 1015mb 87f
7:48pm 14 16 mph 1015mb 87f
6:54pm 14 16 mph 1014.7mb 88f
6:48pm 14 16 mph 1014.7mb 88f
5:54pm 13 15 mph 1014.8mb 89f
5:48pm 13 15 mph 1014.8mb 89f
4:54pm 15 21 mph 1014.5mb 89f
4:48pm 13 18 mph 1014.5mb 89f
3:54pm 13 16 mph 1014.8mb 89f
3:48pm 13 16 mph 1014.9mb 90f
2:54pm 11 17 mph 1015.3mb 90f
2:48pm 9 15 mph 1015.4mb 91f
1:54pm 11 17 mph 1016.1mb 90f
1:48pm 14 20 mph 1016.2mb 89f
12:54pm 11 18 mph 1016.8mb 88f
12:48pm 11 17 mph 1016.8mb 88f
11:54am 9 11 mph 1017.1mb 88f
11:48am 8 10 mph 1017.1mb 88f
9:54am 3 7 mph 1017.4mb 85f
9:48am 5 6 mph 1017.5mb 86f
8:54am 3 5 mph 1017.6mb 84f
8:48am 5 6 mph 1017.5mb 84f
7:54am 2 3 mph 1017.4mb 82f
7:48am 1 2 mph 1017.3mb 82f
6:54am 2 3 mph 1016.8mb 78f
6:48am 2 3 mph 1016.9mb 78f
5:54am 6 7 mph 1016.6mb 78f
5:48am 6 8 mph 1016.5mb 78f
4:54am 6 8 mph 1016.3mb 78f
4:48am 6 7 mph 1016.2mb 78f
3:54am 3 6 mph 1016.3mb 79f
3:48am 3 6 mph 1016.3mb 79f
2:54am 3 5 mph 1016.1mb 80f
2:48am 3 5 mph 1016.2mb 80f
1:54am 3 7 mph 1016.5mb 82f
1:48am 5 7 mph 1016.5mb 82f
12:54am 7 8 mph 1016.7mb 83f
12:48am 7 9 mph 1016.7mb 83f
Wed 07/27 11:54pm 7 10 mph 1016.6mb 83f
11:48pm 8 10 mph 1016.5mb 84f
10:54pm 10 13 mph 1016.3mb 84f
10:48pm 9 13 mph 1016.3mb 84f
9:54pm 10 13 mph 1016.6mb 85f
9:48pm 11 14 mph 1016.6mb 85f
8:54pm 11 14 mph 1016.3mb 86f
8:48pm 10 14 mph 1016.2mb 86f
7:54pm 11 15 mph 1015.8mb 87f
7:48pm 10 14 mph 1015.9mb 87f
6:54pm 10 13 mph 1015.5mb 87f
6:48pm 10 14 mph 1015.4mb 87f
5:54pm 10 13 mph 1015.4mb 88f
5:48pm 9 13 mph 1015.5mb 88f
4:54pm 9 14 mph 1015.6mb 89f
4:48pm 9 14 mph 1015.6mb 89f
3:54pm 13 17 mph 1015.8mb 89f
3:48pm 11 16 mph 1015.9mb 89f
1:54pm 10 15 mph 1016.9mb 89f
1:48pm 10 14 mph 1017mb 89f
12:54pm 11 16 mph 1017.6mb 88f
12:48pm 11 15 mph 1017.6mb 88f
11:54am 11 15 mph 1018.3mb 88f
11:48am 10 13 mph 1018.3mb 88f
10:54am 8 10 mph 1018.7mb 88f
10:48am 7 9 mph 1018.7mb 87f
9:54am 3 6 mph 1018mb 86f
9:48am 5 7 mph 1018mb 86f
8:54am 3 5 mph 1017.9mb 86f
8:48am 2 5 mph 1017.8mb 86f
7:54am 2 6 mph 1017.8mb 84f
7:48am 1 3 mph 1017.7mb 83f
6:54am  -  2 mph 1017.2mb 79f
6:48am  -  1 mph 1017.1mb 79f
5:54am 1 2 mph 1016.8mb 77f
5:48am 2
mph
1016.8mb 77f
3:54am 2 5 mph 1016.3mb 78f
3:48am 2 5 mph 1016.3mb 79f